createdAt,value
2022-09-04T00:02:31.376Z,96537.31
2022-09-04T00:05:38.403Z,96536.91
2022-09-04T00:08:42.976Z,96546.59
2022-09-04T00:11:35.746Z,96538.16
2022-09-04T00:14:10.749Z,96547.41
2022-09-04T00:16:58.848Z,96554.31
2022-09-04T00:19:28.940Z,96554.88
2022-09-04T00:22:04.051Z,96551.63
2022-09-04T00:24:38.462Z,96558.94
2022-09-04T00:27:12.293Z,96556.91
2022-09-04T00:29:52.042Z,96563.66
2022-09-04T00:32:29.084Z,96564.91
2022-09-04T00:35:21.892Z,96569.75
2022-09-04T00:37:53.570Z,96561.97
2022-09-04T00:40:48.018Z,96575.91
2022-09-04T00:43:49.506Z,96581.50
2022-09-04T00:46:46.586Z,96576.59
2022-09-04T00:49:42.315Z,96590.28
2022-09-04T00:52:19.179Z,96590.41
2022-09-04T00:55:08.239Z,96583.19
2022-09-04T00:58:07.684Z,96581.78
2022-09-04T01:00:37.125Z,96594.50
2022-09-04T01:03:14.895Z,96595.88
2022-09-04T01:05:46.906Z,96591.47
2022-09-04T01:08:37.199Z,96589.66
2022-09-04T01:11:22.993Z,96600.34
2022-09-04T01:14:07.144Z,96603.25
2022-09-04T01:16:56.530Z,96606.56
2022-09-04T01:19:58.512Z,96608.50
2022-09-04T01:22:48.100Z,96610.56
2022-09-04T01:25:49.226Z,96619.84
2022-09-04T01:28:22.419Z,96612.47
2022-09-04T01:31:17.861Z,96617.31
2022-09-04T01:34:11.408Z,96612.75
2022-09-04T01:37:02.642Z,96632.25
2022-09-04T01:39:33.107Z,96624.22
2022-09-04T01:42:18.690Z,96625.47
2022-09-04T01:44:49.791Z,96624.44
2022-09-04T01:47:33.305Z,96621.13
2022-09-04T01:50:17.191Z,96616.94
2022-09-04T01:52:58.569Z,96626.13
2022-09-04T01:55:44.787Z,96636.19
2022-09-04T01:58:49.713Z,96645.19
2022-09-04T02:01:34.848Z,96650.47
2022-09-04T02:04:17.678Z,96653.72
2022-09-04T02:06:48.464Z,96649.91
2022-09-04T02:09:45.769Z,96657.81
2022-09-04T02:12:34.913Z,96660.16
2022-09-04T02:15:24.097Z,96666.44
2022-09-04T02:18:06.991Z,96673.44
2022-09-04T02:20:35.509Z,96680.81
2022-09-04T02:23:25.182Z,96679.34
2022-09-04T02:26:08.569Z,96682.50
2022-09-04T02:29:05.470Z,96680.28
2022-09-04T02:31:51.749Z,96688.00
2022-09-04T02:34:37.991Z,96693.13
2022-09-04T02:37:29.795Z,96700.09
2022-09-04T02:40:18.689Z,96702.28
2022-09-04T02:43:20.275Z,96700.28
2022-09-04T02:46:10.217Z,96706.16
2022-09-04T02:48:56.843Z,96713.25
2022-09-04T02:51:49.505Z,96721.56
2022-09-04T02:54:47.729Z,96724.56
2022-09-04T02:57:40.516Z,96733.28
2022-09-04T03:00:10.996Z,96733.66
2022-09-04T03:03:04.550Z,96738.72
2022-09-04T03:05:36.556Z,96735.69
2022-09-04T03:08:23.159Z,96744.75
2022-09-04T03:11:04.441Z,96749.56
2022-09-04T03:13:41.648Z,96749.69
2022-09-04T03:16:25.776Z,96755.69
2022-09-04T03:19:08.459Z,96756.16
2022-09-04T03:22:13.727Z,96759.16
2022-09-04T03:25:18.718Z,96755.22
2022-09-04T03:27:50.424Z,96757.28
2022-09-04T03:30:19.074Z,96748.44
2022-09-04T03:33:14.078Z,96751.88
2022-09-04T03:35:54.325Z,96746.91
2022-09-04T03:38:41.809Z,96747.44
2022-09-04T03:41:40.807Z,96756.66
2022-09-04T03:44:24.441Z,96753.66
2022-09-04T03:46:58.471Z,96759.91
2022-09-04T03:50:11.269Z,96759.56
2022-09-04T03:53:06.039Z,96760.78
2022-09-04T03:55:58.275Z,96761.50
2022-09-04T03:58:47.378Z,96770.19
2022-09-04T04:01:42.711Z,96759.19
2022-09-04T04:04:42.776Z,96766.19
2022-09-04T04:07:19.731Z,96760.34
2022-09-04T04:10:14.912Z,96773.66
2022-09-04T04:12:44.202Z,96780.50
2022-09-04T04:15:48.967Z,96780.59
2022-09-04T04:18:34.655Z,96770.72
2022-09-04T04:21:21.466Z,96773.56
2022-09-04T04:24:34.285Z,96768.47
2022-09-04T04:27:32.940Z,96766.56
2022-09-04T04:30:14.320Z,96767.09
2022-09-04T04:33:06.801Z,96774.38
2022-09-04T04:35:43.516Z,96778.75
2022-09-04T04:38:30.715Z,96786.47
2022-09-04T04:41:12.910Z,96801.88
2022-09-04T04:44:12.803Z,96800.22
2022-09-04T04:47:04.533Z,96809.47
2022-09-04T04:49:38.518Z,96814.81
2022-09-04T04:52:12.016Z,96815.16
2022-09-04T04:54:53.315Z,96820.88
2022-09-04T04:57:24.307Z,96824.53
2022-09-04T05:00:17.044Z,96835.09
2022-09-04T05:02:57.228Z,96843.03
2022-09-04T05:05:48.001Z,96839.09
2022-09-04T05:08:40.398Z,96844.03
2022-09-04T05:11:36.148Z,96847.88
2022-09-04T05:14:27.559Z,96843.84
2022-09-04T05:17:21.358Z,96842.63
2022-09-04T05:20:07.779Z,96838.41
2022-09-04T05:22:51.183Z,96832.47
2022-09-04T05:25:40.362Z,96840.84
2022-09-04T05:28:20.352Z,96841.63
2022-09-04T05:30:57.499Z,96840.84
2022-09-04T05:33:49.862Z,96839.56
2022-09-04T05:36:26.675Z,96833.63
2022-09-04T05:39:25.138Z,96831.13
2022-09-04T05:42:15.052Z,96836.41
2022-09-04T05:45:03.533Z,96832.94
2022-09-04T05:47:55.927Z,96833.31
2022-09-04T05:50:57.131Z,96836.97
2022-09-04T05:53:49.344Z,96848.59
2022-09-04T05:56:55.701Z,96856.00
2022-09-04T05:59:38.017Z,96841.28
2022-09-04T06:02:37.620Z,96847.53
2022-09-04T06:05:14.608Z,96840.28
2022-09-04T06:08:24.053Z,96846.34
2022-09-04T06:11:31.593Z,96840.84
2022-09-04T06:14:32.876Z,96849.75
2022-09-04T06:17:27.257Z,96845.59
2022-09-04T06:20:07.250Z,96850.75
2022-09-04T06:23:05.815Z,96844.25
2022-09-04T06:26:05.944Z,96846.69
2022-09-04T06:28:39.938Z,96847.16
2022-09-04T06:31:10.554Z,96854.22
2022-09-04T06:33:38.539Z,96853.78
2022-09-04T06:36:18.508Z,96853.34
2022-09-04T06:39:13.712Z,96855.81
2022-09-04T06:42:14.080Z,96846.91
2022-09-04T06:45:16.993Z,96842.06
2022-09-04T06:48:00.680Z,96839.78
2022-09-04T06:50:53.208Z,96838.13
2022-09-04T06:53:41.171Z,96836.78
2022-09-04T06:57:04.387Z,96840.03
2022-09-04T07:00:04.586Z,96849.56
2022-09-04T07:02:35.609Z,96852.69
2022-09-04T07:05:36.795Z,96845.13
2022-09-04T07:08:22.619Z,96857.97
2022-09-04T07:11:18.302Z,96861.13
2022-09-04T07:14:07.002Z,96859.28
2022-09-04T07:16:40.716Z,96866.44
2022-09-04T07:19:45.592Z,96874.84
2022-09-04T07:22:43.601Z,96876.63
2022-09-04T07:25:25.323Z,96875.81
2022-09-04T07:28:14.268Z,96881.19
2022-09-04T07:31:05.706Z,96879.94
2022-09-04T07:33:39.613Z,96891.81
2022-09-04T07:36:36.677Z,96890.06
2022-09-04T07:39:30.118Z,96893.53
2022-09-04T07:42:24.227Z,96893.81
2022-09-04T07:45:22.512Z,96897.94
2022-09-04T07:48:14.475Z,96900.25
2022-09-04T07:50:58.322Z,96903.63
2022-09-04T07:53:45.792Z,96911.06
2022-09-04T07:56:47.884Z,96913.97
2022-09-04T07:59:43.633Z,96913.53
2022-09-04T08:02:42.862Z,96906.91
2022-09-04T08:05:27.467Z,96920.44
2022-09-04T08:08:10.443Z,96918.69
2022-09-04T08:11:05.628Z,96922.03
2022-09-04T08:14:10.675Z,96919.31
2022-09-04T08:16:38.214Z,96926.53
2022-09-04T08:19:34.789Z,96923.53
2022-09-04T08:22:03.610Z,96930.34
2022-09-04T08:24:50.517Z,96926.59
2022-09-04T08:27:44.193Z,96932.84
2022-09-04T08:30:15.170Z,96940.75
2022-09-04T08:32:46.130Z,96934.03
2022-09-04T08:35:25.865Z,96941.59
2022-09-04T08:38:18.782Z,96946.84
2022-09-04T08:41:05.586Z,96956.84
2022-09-04T08:44:04.083Z,96953.44
2022-09-04T08:47:09.047Z,96943.94
2022-09-04T08:49:57.870Z,96945.13
2022-09-04T08:53:01.841Z,96948.66
2022-09-04T08:56:08.619Z,96936.75
2022-09-04T08:59:07.709Z,96925.88
2022-09-04T09:02:12.429Z,96927.19
2022-09-04T09:05:11.008Z,96930.69
2022-09-04T09:07:53.698Z,96930.44
2022-09-04T09:10:56.795Z,96941.00
2022-09-04T09:13:53.758Z,96942.75
2022-09-04T09:17:05.902Z,96943.59
2022-09-04T09:19:45.936Z,96946.88
2022-09-04T09:22:41.575Z,96946.28
2022-09-04T09:25:23.482Z,96945.28
2022-09-04T09:28:48.052Z,96952.06
2022-09-04T09:31:50.751Z,96961.53
2022-09-04T09:34:27.161Z,96956.50
2022-09-04T09:37:32.256Z,96958.47
2022-09-04T09:39:59.918Z,96953.19
2022-09-04T09:42:47.742Z,96952.72
2022-09-04T09:45:42.329Z,96954.50
2022-09-04T09:48:22.637Z,96939.81
2022-09-04T09:51:23.583Z,96956.19
2022-09-04T09:54:13.138Z,96956.03
2022-09-04T09:56:59.347Z,96957.97
2022-09-04T09:59:31.037Z,96968.97
2022-09-04T10:02:22.730Z,96969.56
2022-09-04T10:05:09.195Z,96965.38
2022-09-04T10:08:36.137Z,96968.50
2022-09-04T10:11:16.295Z,96964.09
2022-09-04T10:13:59.468Z,96960.47
2022-09-04T10:16:42.349Z,96973.13
2022-09-04T10:19:47.360Z,96978.56
2022-09-04T10:22:33.565Z,96994.13
2022-09-04T10:25:29.720Z,96989.75
2022-09-04T10:28:30.769Z,96990.41
2022-09-04T10:31:08.048Z,96986.00
2022-09-04T10:34:01.796Z,96986.22
2022-09-04T10:36:43.369Z,96991.75
2022-09-04T10:39:31.787Z,96985.78
2022-09-04T10:42:09.953Z,96983.38
2022-09-04T10:45:01.920Z,96993.53
2022-09-04T10:48:10.921Z,96991.22
2022-09-04T10:51:06.477Z,96995.38
2022-09-04T10:53:42.215Z,96996.84
2022-09-04T10:56:23.642Z,96997.47
2022-09-04T10:59:15.859Z,96998.00
2022-09-04T11:02:22.640Z,96991.50
2022-09-04T11:05:21.354Z,96998.38
2022-09-04T11:08:25.510Z,97005.75
2022-09-04T11:11:23.808Z,97004.78
2022-09-04T11:13:57.460Z,96999.00
2022-09-04T11:16:57.312Z,96998.81
2022-09-04T11:19:40.344Z,96990.50
2022-09-04T11:22:45.378Z,96992.63
2022-09-04T11:25:31.246Z,96989.31
2022-09-04T11:28:08.209Z,96993.81
2022-09-04T11:31:28.368Z,96990.47
2022-09-04T11:34:20.226Z,96995.59
2022-09-04T11:37:07.276Z,97001.13
2022-09-04T11:39:47.489Z,97004.41
2022-09-04T11:42:24.243Z,96996.88
2022-09-04T11:45:19.147Z,97003.34
2022-09-04T11:48:05.774Z,96998.00
2022-09-04T11:50:42.386Z,97003.25
2022-09-04T11:53:13.241Z,97006.63
2022-09-04T11:56:02.848Z,97013.78
2022-09-04T11:58:55.572Z,97022.19
2022-09-04T12:01:32.839Z,97030.03
2022-09-04T12:04:23.477Z,97031.41
2022-09-04T12:07:20.190Z,97033.84
2022-09-04T12:10:25.584Z,97028.81
2022-09-04T12:13:27.142Z,97027.97
2022-09-04T12:16:33.365Z,97038.84
2022-09-04T12:19:30.263Z,97044.34
2022-09-04T12:21:58.277Z,97043.28
2022-09-04T12:24:53.768Z,97044.59
2022-09-04T12:27:27.830Z,97039.41
2022-09-04T12:30:07.424Z,97048.53
2022-09-04T12:32:59.747Z,97051.22
2022-09-04T12:35:50.331Z,97056.75
2022-09-04T12:38:36.591Z,97052.84
2022-09-04T12:41:33.330Z,97055.34
2022-09-04T12:44:25.533Z,97061.72
2022-09-04T12:47:24.202Z,97074.75
2022-09-04T12:50:02.572Z,97068.84
2022-09-04T12:52:48.698Z,97077.88
2022-09-04T12:56:01.156Z,97077.56
2022-09-04T12:58:31.972Z,97080.88
2022-09-04T13:01:13.289Z,97086.91
2022-09-04T13:03:57.238Z,97089.28
2022-09-04T13:06:33.996Z,97088.31
2022-09-04T13:09:13.522Z,97082.50
2022-09-04T13:12:10.416Z,97081.16
2022-09-04T13:15:03.962Z,97080.16
2022-09-04T13:17:40.618Z,97081.19
2022-09-04T13:20:35.669Z,97086.47
2022-09-04T13:23:26.939Z,97087.19
2022-09-04T13:26:08.851Z,97086.13
2022-09-04T13:28:52.154Z,97086.22
2022-09-04T13:31:20.520Z,97089.22
2022-09-04T13:34:00.191Z,97087.47
2022-09-04T13:36:58.905Z,97090.34
2022-09-04T13:40:16.635Z,97090.63
2022-09-04T13:43:06.792Z,97084.72
2022-09-04T13:45:42.222Z,97075.53
2022-09-04T13:48:14.851Z,97077.38
2022-09-04T13:51:37.998Z,97075.19
2022-09-04T13:54:46.001Z,97082.13
2022-09-04T13:57:22.650Z,97084.03
2022-09-04T13:59:51.658Z,97089.41
2022-09-04T14:02:22.089Z,97086.13
2022-09-04T14:04:54.543Z,97086.69
2022-09-04T14:07:29.219Z,97084.25
2022-09-04T14:10:00.428Z,97098.38
2022-09-04T14:12:53.656Z,97094.94
2022-09-04T14:15:44.582Z,97096.88
2022-09-04T14:18:21.160Z,97100.97
2022-09-04T14:21:05.448Z,97104.09
2022-09-04T14:23:45.396Z,97100.00
2022-09-04T14:26:39.036Z,97093.84
2022-09-04T14:29:18.790Z,97107.09
2022-09-04T14:32:07.446Z,97103.91
2022-09-04T14:34:50.557Z,97094.06
2022-09-04T14:37:21.663Z,97099.31
2022-09-04T14:39:54.044Z,97105.06
2022-09-04T14:42:50.953Z,97110.66
2022-09-04T14:45:27.036Z,97104.03
2022-09-04T14:48:12.517Z,97104.69
2022-09-04T14:50:49.846Z,97105.16
2022-09-04T14:53:34.047Z,97106.03
2022-09-04T14:56:08.175Z,97112.38
2022-09-04T14:58:40.443Z,97104.34
2022-09-04T15:01:17.957Z,97107.78
2022-09-04T15:04:00.252Z,97095.94
2022-09-04T15:07:00.979Z,97103.25
2022-09-04T15:09:40.825Z,97101.81
2022-09-04T15:12:25.726Z,97099.28
2022-09-04T15:15:04.972Z,97108.81
2022-09-04T15:17:36.153Z,97108.69
2022-09-04T15:20:15.122Z,97112.94
2022-09-04T15:23:14.823Z,97123.19
2022-09-04T15:26:00.657Z,97114.88
2022-09-04T15:28:46.167Z,97106.47
2022-09-04T15:31:27.819Z,97110.63
2022-09-04T15:34:05.815Z,97118.75
2022-09-04T15:36:33.991Z,97119.06
2022-09-04T15:39:05.859Z,97115.00
2022-09-04T15:41:46.345Z,97113.50
2022-09-04T15:44:38.495Z,97115.69
2022-09-04T15:47:37.312Z,97121.81
2022-09-04T15:50:10.896Z,97115.44
2022-09-04T15:52:40.032Z,97114.63
2022-09-04T15:55:28.692Z,97108.47
2022-09-04T15:58:12.070Z,97109.06
2022-09-04T16:00:55.556Z,97111.53
2022-09-04T16:03:29.339Z,97103.75
2022-09-04T16:06:34.026Z,97113.00
2022-09-04T16:09:04.506Z,97116.00
2022-09-04T16:11:41.509Z,97121.94
2022-09-04T16:14:36.177Z,97121.97
2022-09-04T16:17:44.444Z,97128.94
2022-09-04T16:20:37.434Z,97127.53
2022-09-04T16:23:14.001Z,97132.72
2022-09-04T16:25:47.562Z,97129.97
2022-09-04T16:28:26.539Z,97130.91
2022-09-04T16:31:05.962Z,97132.84
2022-09-04T16:33:38.573Z,97124.81
2022-09-04T16:36:12.864Z,97128.19
2022-09-04T16:39:01.983Z,97130.59
2022-09-04T16:41:35.140Z,97122.88
2022-09-04T16:44:26.587Z,97128.44
2022-09-04T16:47:01.112Z,97123.06
2022-09-04T16:49:58.431Z,97113.84
2022-09-04T16:52:44.580Z,97118.44
2022-09-04T16:55:25.594Z,97114.09
2022-09-04T16:58:35.568Z,97113.59
2022-09-04T17:01:33.361Z,97107.22
2022-09-04T17:04:30.443Z,97107.50
2022-09-04T17:07:10.362Z,97103.91
2022-09-04T17:10:05.772Z,97098.38
2022-09-04T17:12:36.590Z,97094.47
2022-09-04T17:15:36.969Z,97080.63
2022-09-04T17:18:10.976Z,97086.13
2022-09-04T17:22:49.988Z,97084.16
2022-09-04T17:28:57.523Z,97084.13
2022-09-04T17:29:07.715Z,97079.84
2022-09-04T17:29:55.417Z,97079.97
2022-09-04T17:36:47.894Z,97072.16
2022-09-04T17:40:46.823Z,97074.41
2022-09-04T17:40:48.031Z,97071.81
2022-09-04T17:42:10.776Z,97062.97
2022-09-04T17:44:46.913Z,97062.22
2022-09-04T17:47:27.905Z,97064.28
2022-09-04T17:49:56.215Z,97054.63
2022-09-04T17:52:29.978Z,97064.56
2022-09-04T17:55:07.439Z,97057.38
2022-09-04T17:58:05.302Z,97050.88
2022-09-04T18:00:53.396Z,97045.97
2022-09-04T18:04:20.620Z,97051.75
2022-09-04T18:07:28.846Z,97050.66
2022-09-04T18:10:25.447Z,97050.47
2022-09-04T18:12:53.474Z,97050.47
2022-09-04T18:15:34.024Z,97049.41
2022-09-04T18:18:08.344Z,97039.75
2022-09-04T18:21:05.115Z,97049.69
2022-09-04T18:23:53.909Z,97041.16
2022-09-04T18:26:24.962Z,97042.28
2022-09-04T18:30:20.078Z,97039.94
2022-09-04T18:37:08.842Z,97030.16
2022-09-04T18:37:16.529Z,97023.81
2022-09-04T18:38:38.700Z,97022.56
2022-09-04T18:47:51.934Z,97025.84
2022-09-04T18:50:36.085Z,97013.41
2022-09-04T18:50:49.245Z,97005.47
2022-09-04T18:53:49.850Z,96975.00
2022-09-04T18:56:20.297Z,96983.44
2022-09-04T18:59:07.075Z,96976.19
2022-09-04T19:01:48.406Z,96979.03
2022-09-04T19:04:34.827Z,96979.13
2022-09-04T19:07:06.998Z,96970.81
2022-09-04T19:09:57.646Z,96971.25
2022-09-04T19:12:47.036Z,96955.19
2022-09-04T19:15:45.542Z,96954.50
2022-09-04T19:18:41.058Z,96949.03
2022-09-04T19:21:35.863Z,96931.56
2022-09-04T19:24:16.365Z,96912.72
2022-09-04T19:26:56.307Z,96913.00
2022-09-04T19:29:32.473Z,96902.69
2022-09-04T19:32:30.721Z,96895.91
2022-09-04T19:35:16.608Z,96891.75
2022-09-04T19:43:29.123Z,96902.06
2022-09-04T19:46:07.278Z,96900.69
2022-09-04T19:46:26.266Z,96908.50
2022-09-04T19:47:29.471Z,96891.34
2022-09-04T19:53:20.110Z,96900.63
2022-09-04T19:53:37.573Z,96886.19
2022-09-04T19:56:13.770Z,96882.16
2022-09-04T19:58:47.355Z,96874.00
2022-09-04T20:01:32.314Z,96889.63
2022-09-04T20:04:19.650Z,96886.34
2022-09-04T20:06:50.287Z,96889.00
2022-09-04T20:09:39.484Z,96884.94
2022-09-04T20:12:34.238Z,96885.94
2022-09-04T20:15:28.290Z,96874.47
2022-09-04T20:18:21.798Z,96872.63
2022-09-04T20:20:54.106Z,96880.44
2022-09-04T20:23:35.082Z,96869.28
2022-09-04T20:26:17.829Z,96861.34
2022-09-04T20:29:06.211Z,96860.59
2022-09-04T20:31:42.287Z,96854.44
2022-09-04T20:34:19.329Z,96859.28
2022-09-04T20:37:12.920Z,96861.50
2022-09-04T20:39:57.512Z,96856.34
2022-09-04T20:43:04.049Z,96847.31
2022-09-04T20:50:50.211Z,96839.06
2022-09-04T20:52:54.890Z,96833.47
2022-09-04T20:52:55.062Z,96840.31
2022-09-04T20:55:20.019Z,96826.78
2022-09-04T21:03:14.203Z,96833.41
2022-09-04T21:03:21.496Z,96834.41
2022-09-04T21:04:23.778Z,96841.50
2022-09-04T21:07:28.283Z,96841.69
2022-09-04T21:09:59.165Z,96856.44
2022-09-04T21:13:12.798Z,96851.13
2022-09-04T21:15:52.874Z,96855.28
2022-09-04T21:18:28.670Z,96855.28
2022-09-04T21:21:06.223Z,96851.25
2022-09-04T21:24:03.871Z,96842.13
2022-09-04T21:26:41.658Z,96852.25
2022-09-04T21:29:35.582Z,96850.66
2022-09-04T21:32:23.448Z,96859.88
2022-09-04T21:34:55.214Z,96851.13
2022-09-04T21:37:49.095Z,96849.56
2022-09-04T21:40:50.891Z,96847.75
2022-09-04T21:43:38.592Z,96840.59
2022-09-04T21:46:26.063Z,96839.13
2022-09-04T21:49:10.988Z,96833.88
2022-09-04T21:52:09.777Z,96830.97
2022-09-04T21:58:41.237Z,96826.53
2022-09-04T22:02:28.038Z,96823.97
2022-09-04T22:02:49.684Z,96814.66
2022-09-04T22:04:21.558Z,96809.81
2022-09-04T22:10:49.512Z,96797.38
2022-09-04T22:13:37.241Z,96798.56
2022-09-04T22:13:46.217Z,96800.13
2022-09-04T22:16:25.926Z,96794.09
2022-09-04T22:19:16.302Z,96815.66
2022-09-04T22:22:09.115Z,96796.16
2022-09-04T22:24:41.184Z,96795.88
2022-09-04T22:27:58.627Z,96787.44
2022-09-04T22:30:49.212Z,96783.66
2022-09-04T22:34:16.225Z,96782.69
2022-09-04T22:37:00.823Z,96786.53
2022-09-04T22:39:32.232Z,96782.53
2022-09-04T22:42:13.703Z,96782.66
2022-09-04T22:45:10.209Z,96783.44
2022-09-04T22:47:56.858Z,96784.66
2022-09-04T22:50:49.351Z,96781.34
2022-09-04T22:53:42.538Z,96781.31
2022-09-04T22:56:26.862Z,96771.97
2022-09-04T22:59:25.828Z,96772.00
2022-09-04T23:02:09.904Z,96765.91
2022-09-04T23:05:00.616Z,96768.00
2022-09-04T23:13:43.349Z,96770.91
2022-09-04T23:13:57.219Z,96771.53
2022-09-04T23:14:19.027Z,96767.88
2022-09-04T23:16:52.462Z,96764.63
2022-09-04T23:26:31.760Z,96758.94
2022-09-04T23:26:36.848Z,96761.88
2022-09-04T23:26:43.941Z,96756.25
2022-09-04T23:29:15.212Z,96749.31
2022-09-04T23:32:11.657Z,96744.84
2022-09-04T23:35:14.371Z,96733.25
2022-09-04T23:38:16.854Z,96744.69
2022-09-04T23:40:56.254Z,96746.09
2022-09-04T23:43:48.575Z,96742.78
2022-09-04T23:46:25.889Z,96743.59
2022-09-04T23:49:31.074Z,96730.91
2022-09-04T23:52:48.767Z,96731.75
2022-09-04T23:55:48.876Z,96723.22
2022-09-04T23:58:49.390Z,96715.81
